Time;durP1;ratioP1;P1;durP2;ratioP2;P2;SDS_P1;SDS_P2;PMS_P1;PMS_P2;Temp;Humidity;BMP_temperature;BMP_pressure;BME280_temperature;BME280_humidity;BME280_pressure;Samples;Min_cycle;Max_cycle;Signal;HPM_P1;HPM_P2
2021/09/05 00:02:26;;;;;;;3.03;2.83;;;16.60;93.80;;;;;;5015306;28;20116;-72
2021/09/05 00:04:54;;;;;;;2.42;2.25;;;16.60;92.90;;;;;;5014993;28;20046;-71
2021/09/05 00:07:21;;;;;;;2.40;2.30;;;16.90;94.20;;;;;;5016595;28;20026;-71
2021/09/05 00:09:48;;;;;;;2.85;2.35;;;17.00;94.40;;;;;;5015057;28;20037;-74
2021/09/05 00:12:16;;;;;;;2.70;2.50;;;17.10;94.90;;;;;;5015355;28;20017;-73
2021/09/05 00:14:43;;;;;;;2.30;2.20;;;16.90;92.20;;;;;;5015075;28;20033;-73
2021/09/05 00:17:10;;;;;;;2.50;2.40;;;16.90;92.20;;;;;;5016429;28;20040;-73
2021/09/05 00:19:38;;;;;;;2.78;2.60;;;16.90;91.80;;;;;;5016282;28;20375;-73
2021/09/05 00:22:05;;;;;;;2.50;2.40;;;16.90;93.00;;;;;;5016248;28;20084;-74
2021/09/05 00:24:33;;;;;;;1.90;1.90;;;17.00;92.30;;;;;;5016228;28;20054;-73
2021/09/05 00:27:00;;;;;;;2.65;1.90;;;17.10;91.40;;;;;;5014850;28;20026;-74
2021/09/05 00:29:28;;;;;;;1.95;1.85;;;17.00;91.70;;;;;;5016040;28;20030;-73
2021/09/05 00:31:55;;;;;;;1.90;1.90;;;17.00;91.50;;;;;;5016134;28;20072;-73
2021/09/05 00:34:24;;;;;;;2.20;2.10;;;17.10;91.00;;;;;;5016381;28;20018;-72
2021/09/05 00:36:52;;;;;;;2.30;2.10;;;17.20;90.40;;;;;;5016001;28;20390;-74
2021/09/05 00:39:19;;;;;;;1.80;1.80;;;17.30;91.00;;;;;;5014587;28;20034;-74
2021/09/05 00:41:47;;;;;;;2.17;2.00;;;17.30;91.20;;;;;;5016068;28;20022;-74
2021/09/05 00:44:14;;;;;;;2.10;2.00;;;17.50;91.40;;;;;;5014707;28;20064;-74
2021/09/05 00:46:42;;;;;;;2.08;1.90;;;17.70;90.70;;;;;;5014538;28;20036;-70
2021/09/05 00:49:11;;;;;;;2.10;2.00;;;17.60;90.00;;;;;;5014290;28;20053;-71
2021/09/05 00:51:42;;;;;;;2.35;2.25;;;17.60;89.80;;;;;;5015391;28;20022;-70
2021/09/05 00:54:11;;;;;;;2.30;2.20;;;17.40;90.40;;;;;;5015679;28;20104;-72
2021/09/05 00:56:42;;;;;;;2.10;1.90;;;17.30;89.20;;;;;;5015526;28;20033;-72
2021/09/05 00:59:15;;;;;;;1.85;1.75;;;17.40;89.70;;;;;;5014315;28;20049;-73
2021/09/05 01:01:42;;;;;;;2.20;2.10;;;17.50;89.80;;;;;;5013368;28;20398;-73
2021/09/05 01:04:10;;;;;;;2.30;2.20;;;17.70;90.60;;;;;;5015285;28;20025;-73
2021/09/05 01:06:40;;;;;;;2.50;2.40;;;17.70;90.00;;;;;;5015144;28;20050;-75
2021/09/05 01:09:08;;;;;;;2.13;2.10;;;17.90;89.30;;;;;;5015179;28;20127;-73
2021/09/05 01:11:36;;;;;;;2.25;2.05;;;18.00;89.40;;;;;;5013824;28;20053;-73
2021/09/05 01:14:06;;;;;;;2.20;2.10;;;18.10;90.20;;;;;;5015295;28;20028;-73
2021/09/05 01:16:36;;;;;;;2.05;1.95;;;17.80;88.00;;;;;;5014190;28;20501;-74
2021/09/05 01:19:14;;;;;;;1.98;1.88;;;18.00;86.50;;;;;;5013718;28;20037;-73
2021/09/05 01:21:43;;;;;;;2.08;1.90;;;18.00;86.10;;;;;;5013986;28;20026;-76
2021/09/05 01:24:12;;;;;;;2.05;2.00;;;18.00;87.00;;;;;;5014041;28;20478;-75
2021/09/05 01:26:42;;;;;;;2.20;2.08;;;18.10;87.10;;;;;;5014240;28;20053;-76
2021/09/05 01:29:10;;;;;;;;;;;18.30;88.70;;;;;;5014616;28;20041;-75
2021/09/05 01:31:41;;;;;;;2.30;1.90;;;18.40;87.90;;;;;;5015063;28;19909;-74
2021/09/05 01:34:09;;;;;;;2.22;2.10;;;18.30;90.00;;;;;;5013750;28;20108;-74
2021/09/05 01:36:38;;;;;;;3.05;2.10;;;18.60;87.60;;;;;;5016132;28;20368;-74
2021/09/05 01:39:07;;;;;;;3.63;2.20;;;18.60;89.00;;;;;;5016397;28;20022;-75
2021/09/05 01:41:35;;;;;;;2.58;2.30;;;18.80;89.00;;;;;;5013870;28;20049;-77
2021/09/05 01:44:09;;;;;;;2.58;2.47;;;18.80;87.70;;;;;;5014210;28;20022;-75
2021/09/05 01:46:36;;;;;;;5.22;2.30;;;18.70;86.90;;;;;;4998096;28;20045;-75
2021/09/05 01:49:04;;;;;;;3.78;2.42;;;18.60;88.10;;;;;;5014402;28;20113;-72
2021/09/05 01:51:32;;;;;;;2.10;2.00;;;18.40;87.20;;;;;;5013495;28;20398;-73
2021/09/05 01:53:59;;;;;;;2.28;2.00;;;18.30;87.80;;;;;;5014666;28;20022;-70
2021/09/05 01:56:31;;;;;;;2.30;2.10;;;18.40;87.00;;;;;;5014413;28;20022;-72
2021/09/05 01:59:00;;;;;;;2.20;2.00;;;18.40;84.90;;;;;;5014536;28;20121;-70
2021/09/05 02:01:29;;;;;;;3.15;2.15;;;18.30;85.70;;;;;;4997507;28;20026;-69
2021/09/05 02:03:58;;;;;;;1.90;1.80;;;18.10;86.30;;;;;;5014343;28;20029;-69
2021/09/05 02:06:28;;;;;;;2.17;2.00;;;18.30;86.20;;;;;;5014069;28;20345;-70
2021/09/05 02:08:56;;;;;;;2.15;1.98;;;18.20;86.90;;;;;;5013262;28;20364;-69
2021/09/05 02:11:24;;;;;;;2.20;2.10;;;18.30;85.30;;;;;;5014085;28;20029;-73
2021/09/05 02:13:52;;;;;;;2.38;2.28;;;18.60;86.50;;;;;;5014230;28;20101;-72
2021/09/05 02:16:20;;;;;;;2.20;2.10;;;18.60;83.40;;;;;;5013917;28;20083;-73
2021/09/05 02:18:48;;;;;;;2.25;2.10;;;18.40;84.10;;;;;;5012720;28;20042;-74
2021/09/05 02:21:15;;;;;;;2.30;2.20;;;18.30;87.20;;;;;;5014084;28;20048;-73
2021/09/05 02:23:43;;;;;;;2.17;2.03;;;18.70;84.80;;;;;;5013931;28;20103;-74
2021/09/05 02:26:10;;;;;;;2.10;2.00;;;18.80;84.40;;;;;;5012562;28;20030;-74
2021/09/05 02:28:38;;;;;;;2.13;2.03;;;18.60;82.00;;;;;;5012631;28;20029;-73
2021/09/05 02:31:05;;;;;;;1.90;1.80;;;18.40;82.60;;;;;;5013903;28;20474;-73
2021/09/05 02:33:33;;;;;;;2.38;2.28;;;18.40;83.90;;;;;;5014052;28;20029;-73
2021/09/05 02:36:00;;;;;;;2.45;2.30;;;18.70;82.50;;;;;;5012435;28;20025;-73
2021/09/05 02:38:28;;;;;;;2.10;1.90;;;18.70;82.00;;;;;;5012433;28;20100;-74
2021/09/05 02:40:55;;;;;;;2.05;1.88;;;18.60;81.00;;;;;;5013927;28;20033;-74
2021/09/05 02:43:23;;;;;;;1.98;1.88;;;18.40;82.40;;;;;;5012401;28;20034;-72
2021/09/05 02:45:50;;;;;;;2.78;1.73;;;18.40;80.40;;;;;;5013501;28;20482;-73
2021/09/05 02:48:18;;;;;;;1.80;1.70;;;18.50;79.50;;;;;;5012282;28;20029;-72
2021/09/05 02:50:45;;;;;;;1.80;1.70;;;18.60;78.20;;;;;;5013422;28;20403;-72
2021/09/05 02:53:12;;;;;;;2.05;1.77;;;18.60;77.20;;;;;;5013512;28;20079;-72
2021/09/05 02:55:39;;;;;;;1.70;1.70;;;18.40;76.50;;;;;;5012238;28;20033;-75
2021/09/05 02:58:07;;;;;;;1.75;1.65;;;18.20;78.50;;;;;;5012070;28;20037;-73
2021/09/05 03:00:34;;;;;;;3.08;2.00;;;18.20;77.60;;;;;;5013646;28;20127;-73
2021/09/05 03:03:01;;;;;;;1.92;1.83;;;18.80;80.40;;;;;;5013408;28;20478;-73
2021/09/05 03:05:29;;;;;;;1.83;1.73;;;18.80;76.90;;;;;;5012975;28;20057;-72
2021/09/05 03:07:56;;;;;;;1.80;1.70;;;18.90;79.00;;;;;;5013336;28;20014;-73
2021/09/05 03:10:23;;;;;;;2.08;1.98;;;19.00;78.10;;;;;;5011997;28;20080;-74
2021/09/05 03:12:51;;;;;;;1.70;1.60;;;19.00;77.90;;;;;;5013286;28;20138;-73
2021/09/05 03:15:18;;;;;;;1.90;1.80;;;19.20;77.80;;;;;;5011792;28;20099;-73
2021/09/05 03:17:45;;;;;;;2.17;2.08;;;19.10;77.40;;;;;;5011977;28;20080;-73
2021/09/05 03:20:13;;;;;;;2.00;1.90;;;19.00;76.50;;;;;;5013140;28;20033;-73
2021/09/05 03:22:40;;;;;;;2.00;1.90;;;19.20;75.80;;;;;;5011982;28;20026;-73
2021/09/05 03:25:08;;;;;;;2.08;2.00;;;19.20;74.90;;;;;;5012512;28;20026;-72
2021/09/05 03:27:35;;;;;;;1.90;1.80;;;19.10;76.90;;;;;;5013011;28;20045;-73
2021/09/05 03:30:03;;;;;;;1.95;1.85;;;18.90;79.70;;;;;;5011780;28;20390;-73
2021/09/05 03:32:31;;;;;;;2.30;2.15;;;18.90;75.50;;;;;;5012894;28;20549;-73
2021/09/05 03:34:58;;;;;;;1.98;1.88;;;18.70;75.80;;;;;;5012908;28;20021;-73
2021/09/05 03:37:25;;;;;;;3.20;3.00;;;18.30;75.50;;;;;;5012951;28;20387;-73
2021/09/05 03:39:53;;;;;;;2.00;1.90;;;18.10;77.10;;;;;;5012914;28;20057;-74
2021/09/05 03:42:20;;;;;;;3.40;3.20;;;18.10;76.90;;;;;;5012861;28;20426;-72
2021/09/05 03:44:47;;;;;;;1.88;1.83;;;18.50;75.20;;;;;;5011821;28;20087;-74
2021/09/05 03:47:15;;;;;;;2.13;2.03;;;18.60;75.80;;;;;;5012865;28;20026;-74
2021/09/05 03:49:42;;;;;;;1.80;1.70;;;18.70;75.10;;;;;;5012933;28;20071;-73
2021/09/05 03:52:09;;;;;;;2.13;2.00;;;18.70;74.70;;;;;;5011770;28;20478;-73
2021/09/05 03:54:37;;;;;;;2.42;2.33;;;18.80;75.20;;;;;;5011630;28;20026;-74
2021/09/05 03:57:04;;;;;;;3.30;3.10;;;19.10;75.90;;;;;;5012961;28;20057;-73
2021/09/05 03:59:32;;;;;;;5.45;4.97;;;18.90;75.20;;;;;;5012854;28;20076;-72
2021/09/05 04:01:59;;;;;;;2.22;2.13;;;19.00;75.90;;;;;;5012703;28;20022;-73
2021/09/05 04:04:26;;;;;;;3.08;2.88;;;19.00;74.60;;;;;;5012821;28;20030;-72
2021/09/05 04:07:03;;;;;;;3.33;3.13;;;19.00;75.20;;;;;;5012597;28;20124;-72
2021/09/05 04:12:18;;;;;;;2.10;2.00;;;19.10;74.80;;;;;;5013235;28;20052;-73
2021/09/05 04:14:46;;;;;;;3.20;3.00;;;18.70;75.10;;;;;;5012775;28;20121;-74
2021/09/05 04:17:13;;;;;;;4.07;3.80;;;18.80;75.40;;;;;;5012936;28;20088;-73
2021/09/05 04:19:41;;;;;;;3.20;2.88;;;18.40;75.90;;;;;;5011515;28;20030;-73
2021/09/05 04:22:08;;;;;;;2.10;2.00;;;18.60;75.90;;;;;;5011172;28;20044;-73
2021/09/05 04:24:35;;;;;;;2.50;2.40;;;18.60;76.30;;;;;;5012670;28;20152;-73
2021/09/05 04:27:03;;;;;;;2.53;2.42;;;18.70;77.30;;;;;;5011261;28;20410;-73
2021/09/05 04:29:30;;;;;;;2.60;2.50;;;18.70;77.30;;;;;;5012460;28;20493;-73
2021/09/05 04:31:58;;;;;;;2.60;2.50;;;18.60;77.00;;;;;;5012523;28;20022;-73
2021/09/05 04:34:25;;;;;;;2.75;2.30;;;18.60;77.00;;;;;;5012407;28;20025;-74
2021/09/05 04:36:52;;;;;;;2.30;2.20;;;18.70;76.70;;;;;;5011220;28;20037;-73
2021/09/05 04:39:20;;;;;;;2.10;2.00;;;18.50;76.70;;;;;;5015966;28;20105;-74
2021/09/05 04:41:47;;;;;;;2.17;2.08;;;18.50;78.00;;;;;;5014726;28;20111;-73
2021/09/05 04:44:14;;;;;;;2.40;2.30;;;18.60;77.80;;;;;;5014696;28;20076;-73
2021/09/05 04:46:42;;;;;;;1.90;1.90;;;18.60;77.00;;;;;;5016050;28;20061;-73
2021/09/05 04:49:10;;;;;;;1.80;1.80;;;18.60;76.20;;;;;;5015888;28;20018;-73
2021/09/05 04:51:37;;;;;;;1.70;1.70;;;18.50;76.90;;;;;;5015807;28;20025;-73
2021/09/05 04:54:05;;;;;;;1.70;1.70;;;18.60;77.90;;;;;;5014411;28;20025;-73
2021/09/05 04:56:32;;;;;;;1.80;1.70;;;18.20;76.90;;;;;;5015893;28;20036;-73
2021/09/05 04:59:00;;;;;;;2.00;1.90;;;18.10;77.00;;;;;;5015776;28;20033;-74
2021/09/05 05:01:27;;;;;;;1.90;1.80;;;17.80;77.90;;;;;;5015753;28;20029;-73
2021/09/05 05:03:55;;;;;;;1.80;1.80;;;17.70;78.60;;;;;;5014278;28;20522;-74
2021/09/05 05:06:22;;;;;;;1.92;1.90;;;17.70;79.00;;;;;;5015356;28;20048;-73
2021/09/05 05:08:50;;;;;;;2.00;2.00;;;17.80;79.70;;;;;;5014225;28;20478;-74
2021/09/05 05:11:18;;;;;;;1.98;1.90;;;17.60;79.40;;;;;;5015372;28;20033;-74
2021/09/05 05:13:46;;;;;;;2.00;1.90;;;17.60;79.80;;;;;;5014068;28;20049;-74
2021/09/05 05:16:13;;;;;;;2.13;2.03;;;17.60;78.80;;;;;;5014051;28;20045;-73
2021/09/05 05:18:41;;;;;;;2.10;2.00;;;17.50;79.50;;;;;;5015292;28;20030;-73
2021/09/05 05:21:09;;;;;;;1.90;1.80;;;17.40;80.50;;;;;;5015324;28;20442;-73
2021/09/05 05:23:38;;;;;;;2.00;1.90;;;17.30;80.00;;;;;;5015338;28;20049;-73
2021/09/05 05:26:05;;;;;;;2.15;2.05;;;17.30;79.50;;;;;;5015128;28;20104;-74
2021/09/05 05:28:33;;;;;;;1.80;1.80;;;17.30;79.90;;;;;;5015233;28;20021;-74
2021/09/05 05:31:00;;;;;;;2.08;1.98;;;17.20;79.30;;;;;;5015120;28;20022;-74
2021/09/05 05:33:27;;;;;;;2.00;1.90;;;17.20;79.80;;;;;;5014983;28;20029;-74
2021/09/05 05:35:54;;;;;;;1.80;1.80;;;17.10;80.50;;;;;;5014895;28;20022;-73
2021/09/05 05:38:23;;;;;;;2.47;2.08;;;17.10;80.30;;;;;;5014813;28;20454;-74
2021/09/05 05:40:51;;;;;;;1.73;1.70;;;17.10;80.60;;;;;;5014921;28;20026;-73
2021/09/05 05:43:18;;;;;;;2.10;1.90;;;17.10;80.40;;;;;;5014848;28;20112;-73
2021/09/05 05:45:46;;;;;;;2.20;2.10;;;17.00;80.60;;;;;;5013265;28;20049;-74
2021/09/05 05:48:14;;;;;;;2.00;2.00;;;17.00;80.60;;;;;;5014198;28;20017;-73
2021/09/05 05:50:42;;;;;;;2.15;2.05;;;16.80;81.60;;;;;;5014642;28;20068;-74
2021/09/05 05:53:10;;;;;;;2.20;2.10;;;16.80;82.60;;;;;;5014649;28;20393;-74
2021/09/05 05:55:37;;;;;;;2.03;1.92;;;16.70;82.60;;;;;;5013419;28;20034;-73
2021/09/05 05:58:04;;;;;;;2.30;2.20;;;16.70;83.00;;;;;;5014462;28;20056;-75
2021/09/05 06:00:32;;;;;;;2.05;2.05;;;16.70;83.90;;;;;;5014679;28;20083;-74
2021/09/05 06:02:59;;;;;;;3.85;2.20;;;16.50;81.40;;;;;;5013083;28;20482;-73
2021/09/05 06:05:27;;;;;;;7.07;2.80;;;16.60;81.80;;;;;;5012695;28;20555;-74
2021/09/05 06:07:54;;;;;;;2.17;2.17;;;16.60;81.90;;;;;;5013138;28;20025;-74
2021/09/05 06:10:21;;;;;;;2.20;2.10;;;16.50;80.90;;;;;;5014205;28;20133;-74
2021/09/05 06:12:49;;;;;;;2.17;1.98;;;16.50;82.50;;;;;;5014146;28;20037;-74
2021/09/05 06:15:16;;;;;;;3.08;2.10;;;16.40;81.90;;;;;;5014194;28;20018;-74
2021/09/05 06:17:43;;;;;;;4.45;2.40;;;16.20;82.90;;;;;;5014135;28;20394;-73
2021/09/05 06:20:11;;;;;;;9.98;2.38;;;16.10;83.70;;;;;;5014053;28;20018;-74
2021/09/05 06:22:38;;;;;;;5.93;2.70;;;16.00;83.70;;;;;;5012738;28;20018;-74
2021/09/05 06:25:06;;;;;;;4.38;2.17;;;15.90;84.50;;;;;;5013883;28;20364;-73
2021/09/05 06:27:33;;;;;;;2.00;2.00;;;15.80;85.20;;;;;;5013873;28;20018;-74
2021/09/05 06:30:01;;;;;;;2.10;2.00;;;15.80;85.90;;;;;;5014085;28;20049;-74
2021/09/05 06:32:29;;;;;;;2.10;2.00;;;15.70;85.50;;;;;;5013767;28;20026;-73
2021/09/05 06:34:56;;;;;;;2.03;2.00;;;15.70;85.60;;;;;;5013957;28;20481;-73
2021/09/05 06:37:24;;;;;;;2.20;2.10;;;15.70;86.90;;;;;;5014034;28;20048;-77
2021/09/05 06:39:53;;;;;;;2.08;2.00;;;15.70;86.70;;;;;;5013900;28;20076;-73
2021/09/05 06:42:20;;;;;;;2.00;1.90;;;15.60;87.00;;;;;;5013587;28;20018;-75
2021/09/05 06:44:48;;;;;;;2.10;2.10;;;15.60;86.20;;;;;;5013407;28;20127;-74
2021/09/05 06:47:15;;;;;;;2.50;2.40;;;15.50;86.80;;;;;;5013321;28;20050;-73
2021/09/05 06:49:42;;;;;;;2.10;2.10;;;15.40;86.80;;;;;;5013705;28;20025;-75
2021/09/05 06:52:09;;;;;;;2.30;2.20;;;15.40;87.90;;;;;;5012392;28;20030;-75
2021/09/05 06:54:37;;;;;;;2.08;2.08;;;15.40;88.20;;;;;;5013144;28;20029;-76
2021/09/05 06:57:06;;;;;;;2.40;2.30;;;15.30;87.50;;;;;;5014742;28;20037;-75
2021/09/05 06:59:33;;;;;;;1.90;1.80;;;15.30;89.60;;;;;;5012683;28;20026;-77
2021/09/05 07:02:01;;;;;;;2.03;1.92;;;15.30;88.60;;;;;;5014035;28;20029;-77
2021/09/05 07:04:29;;;;;;;1.90;1.80;;;15.30;89.60;;;;;;5015414;28;20022;-77
2021/09/05 07:06:56;;;;;;;1.75;1.65;;;15.30;90.80;;;;;;5015189;28;20069;-77
2021/09/05 07:09:23;;;;;;;1.65;1.55;;;15.30;89.30;;;;;;5015194;28;20018;-76
2021/09/05 07:11:51;;;;;;;1.40;1.40;;;15.20;89.50;;;;;;5014155;28;20517;-76
2021/09/05 07:14:18;;;;;;;1.80;1.70;;;15.10;89.60;;;;;;5013583;28;20340;-75
2021/09/05 07:16:45;;;;;;;1.40;1.40;;;15.00;90.70;;;;;;5013663;28;20050;-76
2021/09/05 07:19:13;;;;;;;1.60;1.50;;;15.00;91.90;;;;;;5015146;28;20026;-76
2021/09/05 07:21:40;;;;;;;1.80;1.70;;;14.90;91.70;;;;;;5016807;28;20025;-75
2021/09/05 07:24:07;;;;;;;2.20;2.10;;;14.80;93.20;;;;;;5013281;28;20120;-76
2021/09/05 07:26:36;;;;;;;2.13;2.03;;;14.80;93.70;;;;;;5013261;28;20021;-75
2021/09/05 07:29:04;;;;;;;1.75;1.75;;;14.70;93.70;;;;;;5013221;28;20513;-76
2021/09/05 07:31:31;;;;;;;2.00;1.90;;;14.70;92.90;;;;;;5012409;28;20018;-76
2021/09/05 07:33:59;;;;;;;2.13;2.00;;;14.70;93.40;;;;;;5013952;28;20018;-77
2021/09/05 07:36:27;;;;;;;2.10;2.00;;;14.60;93.40;;;;;;5014236;28;20069;-76
2021/09/05 07:38:54;;;;;;;2.00;2.00;;;14.60;94.60;;;;;;5012288;28;20030;-75
2021/09/05 07:41:21;;;;;;;1.90;1.90;;;14.50;94.70;;;;;;5013244;28;20026;-76
2021/09/05 07:43:48;;;;;;;2.25;2.15;;;14.40;96.50;;;;;;5013622;28;20030;-77
2021/09/05 07:46:16;;;;;;;1.90;1.80;;;14.20;97.20;;;;;;5013226;28;20022;-75
2021/09/05 07:48:43;;;;;;;2.03;1.92;;;14.00;97.90;;;;;;5012964;28;20382;-75
2021/09/05 07:51:11;;;;;;;2.40;2.30;;;13.80;99.90;;;;;;5013212;28;20030;-76
2021/09/05 07:53:38;;;;;;;3.53;3.20;;;13.60;99.90;;;;;;5012774;28;20026;-74
2021/09/05 07:56:06;;;;;;;3.28;3.05;;;13.40;99.90;;;;;;5012830;28;20026;-73
2021/09/05 07:58:33;;;;;;;2.42;2.30;;;13.20;99.90;;;;;;5012747;28;20034;-74
2021/09/05 08:01:00;;;;;;;3.00;2.80;;;13.00;99.90;;;;;;5011449;28;20030;-74
2021/09/05 08:03:28;;;;;;;2.95;2.75;;;12.80;99.90;;;;;;5011429;28;20037;-73
2021/09/05 08:05:55;;;;;;;2.80;2.70;;;12.60;99.90;;;;;;5012792;28;20060;-74
2021/09/05 08:08:22;;;;;;;2.92;2.83;;;12.50;99.90;;;;;;5012633;28;20018;-73
2021/09/05 08:10:51;;;;;;;3.70;3.40;;;12.40;99.90;;;;;;5012669;28;20018;-74
2021/09/05 08:13:18;;;;;;;3.60;3.40;;;12.40;99.90;;;;;;5016436;28;20030;-74
2021/09/05 08:15:45;;;;;;;3.60;3.30;;;12.40;99.90;;;;;;5016440;28;20034;-74
2021/09/05 08:18:13;;;;;;;3.40;3.20;;;12.40;99.90;;;;;;5016472;28;20018;-74
2021/09/05 08:20:40;;;;;;;3.97;3.67;;;12.40;99.90;;;;;;5016360;28;20029;-74
2021/09/05 08:23:07;;;;;;;4.10;3.80;;;12.40;99.90;;;;;;5016227;28;20439;-75
2021/09/05 08:25:35;;;;;;;4.43;4.03;;;12.30;99.90;;;;;;5014974;28;20048;-73
2021/09/05 08:28:04;;;;;;;4.55;4.25;;;12.40;99.90;;;;;;5016091;28;20022;-74
2021/09/05 08:30:32;;;;;;;4.70;4.30;;;12.40;99.90;;;;;;5014949;28;20026;-74
2021/09/05 08:32:59;;;;;;;4.85;4.50;;;12.40;99.90;;;;;;5016476;28;20026;-73
2021/09/05 08:35:26;;;;;;;5.00;4.70;;;12.30;99.90;;;;;;5015259;28;20379;-73
2021/09/05 08:37:53;;;;;;;5.00;4.80;;;12.30;99.90;;;;;;5016295;28;20386;-73
2021/09/05 08:40:23;;;;;;;5.65;5.35;;;12.30;99.90;;;;;;5015846;28;20014;-73
2021/09/05 08:42:53;;;;;;;6.70;6.30;;;12.30;99.90;;;;;;5015796;28;20433;-72
2021/09/05 08:45:23;;;;;;;5.95;5.55;;;12.30;99.90;;;;;;5015766;28;20432;-72
2021/09/05 08:47:52;;;;;;;5.90;5.57;;;12.30;99.90;;;;;;5015805;28;20093;-73
2021/09/05 08:50:19;;;;;;;6.10;5.80;;;12.30;99.90;;;;;;5014534;28;20033;-73
2021/09/05 08:52:48;;;;;;;6.65;6.25;;;12.20;99.90;;;;;;5014562;28;20360;-75
2021/09/05 08:55:16;;;;;;;6.07;5.78;;;12.20;99.90;;;;;;5015675;28;20044;-73
2021/09/05 08:57:43;;;;;;;6.05;5.65;;;12.20;99.90;;;;;;5015558;28;20018;-73
2021/09/05 09:00:11;;;;;;;6.35;6.00;;;12.20;99.90;;;;;;5015594;28;20022;-73
2021/09/05 09:02:52;;;;;;;6.78;6.47;;;12.10;99.90;;;;;;5014075;28;20364;-73
2021/09/05 09:05:39;;;;;;;7.30;6.90;;;12.10;99.90;;;;;;5015195;28;20048;-75
2021/09/05 09:08:12;;;;;;;7.25;6.95;;;12.10;99.90;;;;;;5015571;28;20026;-74
2021/09/05 09:11:03;;;;;;;8.43;7.93;;;12.10;99.90;;;;;;5015249;28;20022;-73
2021/09/05 09:13:37;;;;;;;8.02;7.55;;;12.10;99.90;;;;;;5015406;28;20022;-74
2021/09/05 09:16:09;;;;;;;7.05;6.68;;;12.00;99.90;;;;;;5015480;28;20101;-75
2021/09/05 09:18:38;;;;;;;6.40;6.00;;;11.90;99.90;;;;;;5015896;28;20037;-75
2021/09/05 09:21:08;;;;;;;7.00;6.63;;;11.90;99.90;;;;;;5015526;28;20022;-76
2021/09/05 09:23:37;;;;;;;6.80;6.50;;;11.80;99.90;;;;;;5014793;28;20026;-76
2021/09/05 09:26:17;;;;;;;7.22;6.82;;;11.80;99.90;;;;;;5017807;28;20282;-76
2021/09/05 09:28:49;;;;;;;6.93;6.63;;;11.60;99.90;;;;;;5015044;28;20076;-75
2021/09/05 09:31:24;;;;;;;7.30;6.80;;;11.60;99.90;;;;;;5013790;28;20109;-75
2021/09/05 09:33:59;;;;;;;7.63;7.22;;;11.50;99.90;;;;;;5015017;28;20419;-73
2021/09/05 09:36:28;;;;;;;8.10;7.60;;;11.40;99.90;;;;;;5014816;28;20387;-72
2021/09/05 09:38:57;;;;;;;8.05;7.63;;;11.50;99.90;;;;;;5014770;28;20092;-73
2021/09/05 09:41:32;;;;;;;9.63;8.93;;;11.30;99.90;;;;;;5014952;28;20022;-74
2021/09/05 09:44:05;;;;;;;9.43;8.70;;;11.30;99.90;;;;;;5013538;28;20080;-74
2021/09/05 09:46:36;;;;;;;8.60;8.10;;;11.30;99.90;;;;;;5014678;28;20026;-73
2021/09/05 09:49:06;;;;;;;;;;;11.30;99.90;;;;;;5015037;28;20022;-73
2021/09/05 09:51:35;;;;;;;8.60;8.18;;;11.20;99.90;;;;;;5015095;28;19909;-73
2021/09/05 09:54:02;;;;;;;8.52;8.05;;;11.20;99.90;;;;;;5013187;28;20026;-73
2021/09/05 09:56:30;;;;;;;8.52;8.13;;;11.10;99.90;;;;;;5014388;28;20390;-73
2021/09/05 09:59:04;;;;;;;8.80;8.20;;;11.00;99.90;;;;;;5012984;28;20545;-73
2021/09/05 10:01:33;;;;;;;8.80;8.40;;;11.00;99.90;;;;;;5014435;28;20034;-73
2021/09/05 10:04:02;;;;;;;8.50;8.00;;;10.90;99.90;;;;;;5014289;28;20049;-74
2021/09/05 10:06:32;;;;;;;8.68;8.27;;;10.90;99.90;;;;;;5014006;28;20046;-74
2021/09/05 10:09:08;;;;;;;8.73;8.30;;;10.90;99.90;;;;;;5014496;28;20029;-74
2021/09/05 10:11:37;;;;;;;9.05;8.65;;;10.90;99.90;;;;;;5012974;28;20451;-74
2021/09/05 10:14:05;;;;;;;9.60;9.10;;;10.80;99.90;;;;;;5014062;28;20041;-74
2021/09/05 10:16:33;;;;;;;9.90;9.20;;;10.80;99.90;;;;;;5014041;28;20502;-74
2021/09/05 10:19:06;;;;;;;9.35;8.70;;;10.80;99.90;;;;;;5015233;28;20105;-78
2021/09/05 10:21:36;;;;;;;9.80;9.40;;;10.90;99.90;;;;;;5017780;28;20501;-77
2021/09/05 10:24:12;;;;;;;9.57;9.17;;;11.10;99.90;;;;;;5015285;28;20045;-75
2021/09/05 10:27:03;;;;;;;10.05;9.48;;;11.00;99.90;;;;;;5014539;28;20298;-76
2021/09/05 10:29:30;;;;;;;9.40;9.00;;;10.90;99.90;;;;;;5015146;28;20022;-76
2021/09/05 10:31:58;;;;;;;9.93;9.45;;;10.90;99.90;;;;;;5014300;28;20495;-76
2021/09/05 10:34:37;;;;;;;10.05;9.45;;;10.70;99.90;;;;;;5015183;28;20033;-77
2021/09/05 10:37:13;;;;;;;10.27;9.70;;;10.70;99.90;;;;;;5019163;28;20032;-77
2021/09/05 10:40:09;;;;;;;10.60;10.00;;;10.70;99.90;;;;;;5017542;28;20030;-77
2021/09/05 10:42:58;;;;;;;12.02;11.23;;;10.70;99.90;;;;;;5017727;28;20535;-76
2021/09/05 10:45:26;;;;;;;11.38;10.77;;;10.60;99.90;;;;;;5024607;28;20032;-78
2021/09/05 10:47:54;;;;;;;12.13;11.38;;;10.60;99.90;;;;;;5016864;28;20391;-76
2021/09/05 10:50:41;;;;;;;10.05;9.55;;;10.60;99.90;;;;;;5015266;28;20022;-78
2021/09/05 10:53:20;;;;;;;9.75;9.20;;;10.50;99.90;;;;;;5015087;28;20026;-77
2021/09/05 10:56:03;;;;;;;9.85;9.43;;;10.50;99.90;;;;;;5015004;28;20030;-77
2021/09/05 10:58:39;;;;;;;10.00;9.50;;;10.60;99.90;;;;;;5013625;28;20368;-78
2021/09/05 11:01:24;;;;;;;9.00;8.60;;;10.60;99.90;;;;;;5014814;28;20026;-77
2021/09/05 11:04:16;;;;;;;9.10;8.70;;;10.70;99.90;;;;;;5015245;28;20049;-78
2021/09/05 11:06:47;;;;;;;9.13;8.63;;;10.70;99.90;;;;;;5014686;28;20042;-77
2021/09/05 11:09:24;;;;;;;9.27;8.88;;;10.70;99.90;;;;;;5013008;28;20026;-78
2021/09/05 11:14:36;;;;;;;8.80;8.40;;;10.80;99.90;;;;;;5016247;28;20069;-78
2021/09/05 11:17:20;;;;;;;8.63;8.23;;;10.80;99.90;;;;;;5014710;28;20030;-78
2021/09/05 11:19:54;;;;;;;8.57;8.18;;;10.80;99.90;;;;;;5014911;28;20033;-77
2021/09/05 11:22:26;;;;;;;8.70;8.30;;;10.80;99.90;;;;;;5014119;28;20525;-78
2021/09/05 11:25:13;;;;;;;8.40;8.00;;;10.80;99.90;;;;;;5012555;28;20049;-77
2021/09/05 11:27:48;;;;;;;7.50;7.20;;;10.90;99.90;;;;;;5012927;28;20117;-79
2021/09/05 11:30:17;;;;;;;7.28;6.97;;;11.00;99.90;;;;;;5012620;28;20109;-75
2021/09/05 11:32:45;;;;;;;8.18;7.78;;;11.10;99.90;;;;;;5013770;28;20029;-76
2021/09/05 11:35:13;;;;;;;7.70;7.40;;;11.20;99.90;;;;;;5014685;28;20032;-78
2021/09/05 11:37:44;;;;;;;6.55;6.28;;;11.20;99.90;;;;;;5013920;28;20021;-78
2021/09/05 11:40:19;;;;;;;6.85;6.55;;;11.30;99.90;;;;;;5014549;28;20370;-77
2021/09/05 11:42:47;;;;;;;6.20;6.00;;;11.30;99.90;;;;;;5013448;28;20045;-77
2021/09/05 11:45:16;;;;;;;6.20;6.00;;;11.40;99.90;;;;;;5014906;28;20025;-78
2021/09/05 11:47:44;;;;;;;6.32;6.07;;;11.50;99.90;;;;;;5018473;28;20145;-78
2021/09/05 11:50:14;;;;;;;6.40;6.10;;;11.40;99.90;;;;;;5018937;28;20022;-77
2021/09/05 11:52:43;;;;;;;6.88;6.53;;;11.40;99.90;;;;;;5017633;28;20084;-77
2021/09/05 11:55:16;;;;;;;6.90;6.60;;;11.50;99.90;;;;;;5016944;28;20018;-78
2021/09/05 11:57:58;;;;;;;6.32;6.03;;;11.50;99.90;;;;;;5018924;28;20017;-77
2021/09/05 12:00:32;;;;;;;6.20;6.00;;;11.50;99.90;;;;;;5017307;28;20026;-77
2021/09/05 12:03:02;;;;;;;6.28;5.97;;;11.50;99.90;;;;;;5017962;28;20387;-76
2021/09/05 12:05:30;;;;;;;6.03;5.83;;;11.50;99.90;;;;;;5017543;28;20077;-77
2021/09/05 12:07:57;;;;;;;6.13;5.93;;;11.50;99.90;;;;;;5017968;28;20036;-77
2021/09/05 12:10:27;;;;;;;5.95;5.65;;;11.40;99.90;;;;;;5017946;28;20022;-77
2021/09/05 12:13:06;;;;;;;6.50;6.30;;;11.40;99.90;;;;;;5016197;28;20474;-76
2021/09/05 12:15:44;;;;;;;5.70;5.50;;;11.50;99.90;;;;;;5017233;28;20478;-76
2021/09/05 12:18:22;;;;;;;5.80;5.60;;;11.60;99.90;;;;;;5017675;28;20025;-77
2021/09/05 12:20:58;;;;;;;6.28;6.07;;;11.60;99.90;;;;;;5017679;28;20018;-78
2021/09/05 12:23:30;;;;;;;5.60;5.40;;;11.60;99.90;;;;;;5018442;28;20104;-77
2021/09/05 12:26:01;;;;;;;5.32;5.13;;;11.70;99.90;;;;;;5017632;28;20041;-76
2021/09/05 12:28:30;;;;;;;5.25;5.05;;;11.60;99.90;;;;;;5018716;28;20081;-77
2021/09/05 12:31:05;;;;;;;5.30;5.10;;;11.60;99.90;;;;;;5017872;28;20030;-77
2021/09/05 12:33:35;;;;;;;5.03;4.72;;;11.60;99.90;;;;;;5016085;28;20029;-77
2021/09/05 12:36:21;;;;;;;5.80;5.43;;;11.60;99.90;;;;;;5017257;28;20475;-77
2021/09/05 12:38:56;;;;;;;5.90;5.70;;;11.60;99.90;;;;;;5016243;28;20501;-77
2021/09/05 12:41:31;;;;;;;5.63;5.43;;;11.60;99.90;;;;;;5017321;28;20054;-77
2021/09/05 12:43:59;;;;;;;5.10;4.90;;;11.60;99.90;;;;;;5017783;28;20082;-77
2021/09/05 12:46:42;;;;;;;4.70;4.50;;;11.70;99.90;;;;;;5016243;28;20117;-77
2021/09/05 12:49:14;;;;;;;5.18;4.78;;;11.70;99.90;;;;;;5017403;28;20548;-78
2021/09/05 12:51:48;;;;;;;4.80;4.60;;;11.70;99.90;;;;;;5017608;28;20358;-77
2021/09/05 12:54:16;;;;;;;4.82;4.63;;;11.70;99.90;;;;;;5017191;28;20100;-77
2021/09/05 12:56:44;;;;;;;4.90;4.70;;;11.70;99.90;;;;;;5017526;28;20026;-77
2021/09/05 12:59:13;;;;;;;5.25;5.00;;;11.70;99.90;;;;;;5016988;28;20018;-76
2021/09/05 13:01:40;;;;;;;5.32;5.10;;;11.60;99.90;;;;;;5016724;28;20101;-77
2021/09/05 13:04:11;;;;;;;5.70;5.40;;;11.50;99.90;;;;;;5016669;28;20025;-77
2021/09/05 13:06:39;;;;;;;5.30;5.00;;;11.40;99.90;;;;;;5015997;28;20077;-76